Carmel, Colorado
Current Conditions -  °F | °C
As of 12:52 PM on Friday 24 Oct 2014 (Local Time) from KALS Reporting Station
Clear Clear  
Wind Chill: 63°   Ceiling: Unl
Heat Index: 63°   Visibility: 10mi
Dew Point: 30°   Wind: 5mph
Humidity: 29%   Direction: NA
Pressure: 30.4"   Gusts: NA
Location:  37.469°N, 105.836°W
Report Text: KALS 241852Z AUTO VRB04KT 10SM CLR 17/M01 A3040 RMK AO2 SLP243 T01721011
Loading
Personal Weather Stations






























Interactive Weather Map
Tropical Storm Tracking
New forecast layout! Learn more

10-Day Weather Forecast

Advertisements
Track Severe Weather on mobile